createdAt,value
2018-05-03T00:02:18.416Z,75.20
2018-05-03T00:04:46.976Z,75.30
2018-05-03T00:07:15.939Z,75.10
2018-05-03T00:09:44.717Z,75.00
2018-05-03T00:12:13.256Z,75.00
2018-05-03T00:14:41.452Z,75.10
2018-05-03T00:17:10.045Z,75.40
2018-05-03T00:19:38.248Z,75.50
2018-05-03T00:22:06.468Z,75.50
2018-05-03T00:24:35.036Z,75.70
2018-05-03T00:27:04.008Z,76.30
2018-05-03T00:29:32.204Z,76.30
2018-05-03T00:32:01.281Z,76.20
2018-05-03T00:34:29.480Z,76.20
2018-05-03T00:36:58.448Z,76.30
2018-05-03T00:39:26.668Z,76.30
2018-05-03T00:41:55.523Z,76.20
2018-05-03T00:44:24.187Z,76.30
2018-05-03T00:46:52.880Z,76.80
2018-05-03T00:49:21.071Z,77.20
2018-05-03T00:51:54.567Z,78.00
2018-05-03T00:54:36.073Z,78.00
2018-05-03T00:57:04.351Z,77.30
2018-05-03T00:59:33.719Z,77.30
2018-05-03T01:02:02.144Z,77.40
2018-05-03T01:04:30.741Z,77.40
2018-05-03T01:06:59.080Z,78.00
2018-05-03T01:09:28.091Z,78.10
2018-05-03T01:11:56.861Z,78.30
2018-05-03T01:14:25.064Z,78.10
2018-05-03T01:16:53.263Z,78.10
2018-05-03T01:19:21.479Z,78.70
2018-05-03T01:21:49.683Z,78.80
2018-05-03T01:24:17.884Z,79.00
2018-05-03T01:26:46.347Z,79.30
2018-05-03T01:29:15.304Z,79.70
2018-05-03T01:31:43.901Z,79.80
2018-05-03T01:34:12.096Z,80.10
2018-05-03T01:36:40.899Z,79.80
2018-05-03T01:39:09.454Z,80.10
2018-05-03T01:41:38.223Z,80.00
2018-05-03T01:44:06.712Z,80.00
2018-05-03T01:46:35.684Z,79.80
2018-05-03T01:49:03.889Z,79.80
2018-05-03T01:51:32.175Z,79.80
2018-05-03T01:54:00.527Z,79.90
2018-05-03T01:56:29.039Z,79.80
2018-05-03T01:58:58.115Z,80.20
2018-05-03T02:01:26.312Z,80.20
2018-05-03T02:03:54.528Z,80.00
2018-05-03T02:06:22.743Z,80.10
2018-05-03T02:08:51.232Z,80.50
2018-05-03T02:11:20.056Z,81.00
2018-05-03T02:13:48.329Z,80.70
2018-05-03T02:16:16.857Z,80.70
2018-05-03T02:18:45.090Z,80.60
2018-05-03T02:21:13.287Z,80.70
2018-05-03T02:23:43.797Z,80.90
2018-05-03T02:26:12.765Z,80.30
2018-05-03T02:28:40.968Z,80.30
2018-05-03T02:31:09.628Z,80.30
2018-05-03T02:33:38.595Z,80.30
2018-05-03T02:36:07.764Z,80.30
2018-05-03T02:38:35.972Z,80.00
2018-05-03T02:41:04.476Z,80.00
2018-05-03T02:43:34.311Z,79.60
2018-05-03T02:46:02.857Z,79.60
2018-05-03T02:48:31.832Z,79.80
2018-05-03T02:51:00.091Z,80.00
2018-05-03T02:53:28.296Z,79.60
2018-05-03T02:55:57.739Z,80.10
2018-05-03T02:58:38.404Z,80.30
2018-05-03T03:01:24.368Z,80.50
2018-05-03T03:04:10.433Z,80.60
2018-05-03T03:06:56.762Z,81.10
2018-05-03T03:09:44.642Z,81.20
2018-05-03T03:26:14.234Z,81.80
2018-05-03T03:29:01.468Z,82.20
2018-05-03T03:31:48.074Z,82.10
2018-05-03T03:34:23.008Z,81.70
2018-05-03T03:37:26.297Z,81.70
2018-05-03T03:40:12.024Z,81.80
2018-05-03T03:56:16.690Z,82.90
2018-05-03T03:58:46.211Z,82.70
2018-05-03T04:01:15.172Z,82.80
2018-05-03T04:03:43.367Z,82.80
2018-05-03T04:06:11.612Z,82.90
2018-05-03T04:08:39.992Z,82.90
2018-05-03T04:11:08.535Z,82.80
2018-05-03T04:13:36.747Z,82.80
2018-05-03T04:16:05.010Z,83.10
2018-05-03T04:18:44.956Z,83.40
2018-05-03T04:21:24.973Z,84.10
2018-05-03T04:24:13.628Z,83.70
2018-05-03T04:26:42.774Z,84.10
2018-05-03T04:29:10.967Z,84.10
2018-05-03T04:31:40.268Z,84.40
2018-05-03T04:34:09.237Z,84.60
2018-05-03T04:36:38.080Z,84.50
2018-05-03T04:39:07.956Z,84.60
2018-05-03T04:41:37.739Z,84.70
2018-05-03T04:44:06.365Z,84.70
2018-05-03T04:46:35.060Z,84.80
2018-05-03T04:49:11.232Z,85.30
2018-05-03T04:51:39.961Z,85.50
2018-05-03T04:54:08.165Z,85.40
2018-05-03T04:56:37.292Z,85.50
2018-05-03T04:59:05.972Z,85.40
2018-05-03T05:01:38.996Z,85.80
2018-05-03T05:04:08.167Z,86.00
2018-05-03T05:06:36.547Z,86.00
2018-05-03T05:09:04.755Z,85.80
2018-05-03T05:11:33.280Z,86.40
2018-05-03T05:14:01.481Z,86.20
2018-05-03T05:16:35.235Z,86.50
2018-05-03T05:19:03.448Z,87.00
2018-05-03T05:21:31.648Z,86.80
2018-05-03T05:24:00.231Z,86.80
2018-05-03T05:26:29.190Z,86.80
2018-05-03T05:28:57.848Z,86.90
2018-05-03T05:31:26.082Z,86.60
2018-05-03T05:33:54.287Z,86.70
2018-05-03T05:36:22.577Z,86.00
2018-05-03T05:38:50.814Z,86.10
2018-05-03T05:41:23.227Z,86.70
2018-05-03T05:43:51.640Z,86.70
2018-05-03T05:46:20.151Z,86.50
2018-05-03T05:48:50.288Z,86.30
2018-05-03T05:51:18.558Z,85.80
2018-05-03T05:53:47.069Z,85.80
2018-05-03T05:56:15.723Z,86.20
2018-05-03T05:58:44.279Z,86.20
2018-05-03T06:01:12.485Z,86.00
2018-05-03T06:03:41.986Z,85.80
2018-05-03T06:06:10.189Z,85.50
2018-05-03T06:08:38.477Z,85.40
2018-05-03T06:11:06.760Z,85.20
2018-05-03T06:13:35.369Z,85.10
2018-05-03T06:16:03.581Z,85.30
2018-05-03T06:18:32.560Z,84.70
2018-05-03T06:21:00.776Z,84.80
2018-05-03T06:23:28.999Z,84.70
2018-05-03T06:25:57.616Z,85.50
2018-05-03T06:28:26.018Z,85.40
2018-05-03T06:30:54.975Z,85.20
2018-05-03T06:33:23.277Z,85.60
2018-05-03T06:35:52.588Z,85.00
2018-05-03T06:38:21.349Z,85.00
2018-05-03T06:40:49.921Z,84.90
2018-05-03T06:43:18.987Z,84.80
2018-05-03T06:45:47.252Z,84.40
2018-05-03T06:48:15.940Z,84.00
2018-05-03T06:50:44.465Z,83.90
2018-05-03T06:53:12.938Z,83.10
2018-05-03T06:55:41.858Z,82.60
2018-05-03T06:58:11.016Z,83.00
2018-05-03T07:00:43.448Z,83.00
2018-05-03T07:03:12.025Z,82.70
2018-05-03T07:05:40.996Z,82.40
2018-05-03T07:08:10.233Z,82.40
2018-05-03T07:10:38.888Z,82.10
2018-05-03T07:13:07.995Z,82.30
2018-05-03T07:15:36.968Z,82.00
2018-05-03T07:18:05.184Z,82.00
2018-05-03T07:20:33.644Z,81.70
2018-05-03T07:23:03.330Z,81.10
2018-05-03T07:25:31.529Z,81.00
2018-05-03T07:28:01.292Z,81.50
2018-05-03T07:30:29.940Z,81.50
2018-05-03T07:32:58.140Z,81.00
2018-05-03T07:35:26.888Z,80.80
2018-05-03T07:37:56.546Z,80.40
2018-05-03T07:40:24.764Z,80.30
2018-05-03T07:42:53.251Z,79.30
2018-05-03T07:45:22.844Z,79.40
2018-05-03T07:47:51.048Z,79.30
2018-05-03T07:50:19.800Z,79.30
2018-05-03T07:52:51.548Z,79.30
2018-05-03T07:55:19.840Z,78.10
2018-05-03T07:57:48.056Z,78.00
2018-05-03T08:00:16.328Z,78.40
2018-05-03T08:02:51.410Z,77.30
2018-05-03T08:05:20.384Z,76.50
2018-05-03T08:07:48.668Z,76.50
2018-05-03T08:10:20.589Z,76.60
2018-05-03T08:12:49.561Z,76.30
2018-05-03T08:15:17.772Z,76.30
2018-05-03T08:17:46.278Z,75.20
2018-05-03T08:20:14.488Z,75.40
2018-05-03T08:22:42.684Z,75.20
2018-05-03T08:25:10.902Z,74.00
2018-05-03T08:27:39.096Z,73.20
2018-05-03T08:30:07.301Z,73.40
2018-05-03T08:32:35.871Z,71.70
2018-05-03T08:35:07.973Z,70.60
2018-05-03T08:37:36.168Z,70.90
2018-05-03T08:40:04.376Z,70.30
2018-05-03T08:42:34.492Z,69.80
2018-05-03T08:45:03.008Z,69.80
2018-05-03T08:47:31.209Z,69.80
2018-05-03T08:50:00.177Z,67.30
2018-05-03T08:52:28.383Z,67.30
2018-05-03T08:54:56.588Z,68.00
2018-05-03T08:57:26.154Z,68.50
2018-05-03T08:59:55.631Z,67.80
2018-05-03T09:02:23.875Z,67.70
2018-05-03T09:04:52.640Z,66.70
2018-05-03T09:07:21.101Z,66.70
2018-05-03T09:09:50.216Z,64.90
2018-05-03T09:12:18.468Z,64.90
2018-05-03T09:14:47.443Z,63.40
2018-05-03T09:17:15.649Z,63.30
2018-05-03T09:19:45.150Z,61.60
2018-05-03T09:22:14.117Z,61.70
2018-05-03T09:24:42.324Z,61.60
2018-05-03T09:27:11.816Z,61.30
2018-05-03T09:29:40.012Z,61.30
2018-05-03T09:32:08.504Z,61.80
2018-05-03T09:34:37.408Z,62.80
2018-05-03T09:37:06.072Z,62.80
2018-05-03T09:39:35.366Z,61.90
2018-05-03T09:42:04.241Z,62.00
2018-05-03T09:44:32.563Z,61.80
2018-05-03T09:47:00.764Z,63.00
2018-05-03T09:49:29.744Z,62.80
2018-05-03T09:51:58.155Z,62.80
2018-05-03T09:54:26.530Z,63.00
2018-05-03T09:56:54.795Z,62.70
2018-05-03T09:59:23.168Z,62.60
2018-05-03T10:01:51.356Z,63.10
2018-05-03T10:04:19.876Z,62.40
2018-05-03T10:06:49.308Z,62.80
2018-05-03T10:09:17.518Z,62.80
2018-05-03T10:11:46.128Z,63.70
2018-05-03T10:14:14.340Z,63.60
2018-05-03T10:16:42.544Z,63.70
2018-05-03T10:19:10.763Z,63.50
2018-05-03T10:21:40.288Z,63.80
2018-05-03T10:24:09.252Z,64.50
2018-05-03T10:26:37.461Z,64.50
2018-05-03T10:29:05.778Z,64.20
2018-05-03T10:31:34.963Z,64.20
2018-05-03T10:34:03.265Z,63.70
2018-05-03T10:36:31.524Z,64.10
2018-05-03T10:39:00.131Z,64.40
2018-05-03T10:41:28.450Z,64.10
2018-05-03T10:44:05.082Z,64.30
2018-05-03T10:46:33.288Z,64.20
2018-05-03T10:49:02.273Z,63.80
2018-05-03T10:51:30.472Z,63.80
2018-05-03T10:53:58.685Z,63.60
2018-05-03T10:56:27.347Z,63.90
2018-05-03T10:58:56.091Z,64.70
2018-05-03T11:01:24.288Z,63.90
2018-05-03T11:03:53.413Z,63.90
2018-05-03T11:08:55.615Z,63.90
2018-05-03T11:11:24.424Z,63.10
2018-05-03T11:13:52.596Z,63.50
2018-05-03T11:16:21.405Z,64.40
2018-05-03T11:18:49.603Z,64.00
2018-05-03T11:21:18.564Z,63.90
2018-05-03T11:23:46.792Z,63.90
2018-05-03T11:26:14.988Z,63.80
2018-05-03T11:28:43.493Z,64.10
2018-05-03T11:31:12.617Z,64.10
2018-05-03T11:33:41.585Z,62.20
2018-05-03T11:36:10.317Z,62.10
2018-05-03T11:38:39.085Z,62.50
2018-05-03T11:41:08.200Z,62.60
2018-05-03T11:43:38.499Z,62.50
2018-05-03T11:46:07.784Z,62.50
2018-05-03T11:48:35.989Z,62.10
2018-05-03T11:51:04.808Z,62.40
2018-05-03T11:53:34.294Z,62.90
2018-05-03T11:56:04.003Z,61.60
2018-05-03T11:58:46.816Z,62.40
2018-05-03T12:01:15.779Z,62.10
2018-05-03T12:03:45.491Z,62.80
2018-05-03T12:06:15.273Z,62.40
2018-05-03T12:08:44.012Z,62.30
2018-05-03T12:11:13.087Z,62.30
2018-05-03T12:13:41.609Z,61.80
2018-05-03T12:16:10.864Z,61.90
2018-05-03T12:18:39.364Z,61.70
2018-05-03T12:21:08.187Z,61.50
2018-05-03T12:23:36.396Z,61.40
2018-05-03T12:26:04.588Z,60.10
2018-05-03T12:28:33.561Z,59.90
2018-05-03T12:31:02.873Z,59.80
2018-05-03T12:33:31.772Z,59.70
2018-05-03T12:36:00.372Z,58.90
2018-05-03T12:38:28.576Z,58.50
2018-05-03T12:40:56.772Z,58.00
2018-05-03T12:43:25.992Z,59.30
2018-05-03T12:45:54.451Z,58.80
2018-05-03T12:48:22.653Z,59.20
2018-05-03T12:50:50.852Z,59.10
2018-05-03T12:53:19.539Z,59.80
2018-05-03T12:55:48.700Z,59.70
2018-05-03T12:58:16.900Z,59.10
2018-05-03T13:00:46.491Z,59.80
2018-05-03T13:03:15.520Z,59.30
2018-05-03T13:05:44.560Z,59.80
2018-05-03T13:08:12.896Z,58.50
2018-05-03T13:10:41.369Z,58.80
2018-05-03T13:13:10.177Z,59.50
2018-05-03T13:15:38.375Z,60.30
2018-05-03T13:18:06.692Z,59.30
2018-05-03T13:20:34.905Z,59.70
2018-05-03T13:23:03.681Z,58.80
2018-05-03T13:25:32.276Z,59.00
2018-05-03T13:28:01.295Z,58.80
2018-05-03T13:30:30.263Z,58.80
2018-05-03T13:32:58.466Z,59.10
2018-05-03T13:35:27.128Z,59.40
2018-05-03T13:37:55.341Z,59.10
2018-05-03T13:40:23.784Z,59.20
2018-05-03T13:42:52.040Z,58.30
2018-05-03T13:45:20.477Z,59.40
2018-05-03T13:47:49.858Z,59.10
2018-05-03T13:50:18.818Z,58.80
2018-05-03T13:52:47.086Z,58.80
2018-05-03T13:55:15.504Z,59.20
2018-05-03T13:57:44.807Z,59.80
2018-05-03T14:00:14.116Z,59.10
2018-05-03T14:02:43.380Z,59.20
2018-05-03T14:05:11.585Z,59.20
2018-05-03T14:07:40.976Z,59.20
2018-05-03T14:10:10.285Z,59.10
2018-05-03T14:12:39.843Z,58.40
2018-05-03T14:15:08.044Z,58.40
2018-05-03T14:17:36.246Z,58.50
2018-05-03T14:20:04.476Z,58.70
2018-05-03T14:22:32.672Z,59.10
2018-05-03T14:25:00.869Z,59.00
2018-05-03T14:27:29.640Z,58.60
2018-05-03T14:29:57.839Z,58.30
2018-05-03T14:32:26.110Z,57.40
2018-05-03T14:34:54.311Z,56.90
2018-05-03T14:37:22.742Z,56.70
2018-05-03T14:39:51.848Z,57.50
2018-05-03T14:42:20.963Z,57.50
2018-05-03T14:44:50.493Z,56.80
2018-05-03T14:47:18.695Z,56.80
2018-05-03T14:49:46.904Z,55.80
2018-05-03T14:52:15.578Z,56.20
2018-05-03T14:54:43.756Z,56.90
2018-05-03T14:57:15.817Z,57.50
2018-05-03T14:59:44.854Z,57.00
2018-05-03T15:02:13.823Z,56.90
2018-05-03T15:04:42.025Z,56.90
2018-05-03T15:07:11.309Z,56.00
2018-05-03T15:09:43.260Z,56.60
2018-05-03T15:12:11.568Z,56.60
2018-05-03T15:14:40.532Z,57.30
2018-05-03T15:17:08.731Z,57.30
2018-05-03T15:19:36.952Z,56.80
2018-05-03T15:22:05.151Z,56.80
2018-05-03T15:24:33.421Z,57.30
2018-05-03T15:27:02.591Z,57.00
2018-05-03T15:29:30.808Z,56.80
2018-05-03T15:31:59.540Z,57.30
2018-05-03T15:34:27.742Z,57.10
2018-05-03T15:36:57.064Z,57.70
2018-05-03T15:39:25.780Z,57.70
2018-05-03T15:41:55.479Z,57.40
2018-05-03T15:44:23.977Z,57.40
2018-05-03T15:46:52.932Z,57.30
2018-05-03T15:49:21.138Z,57.30
2018-05-03T15:51:49.372Z,57.40
2018-05-03T15:54:18.073Z,57.80
2018-05-03T15:56:46.688Z,57.80
2018-05-03T15:59:16.514Z,57.80
2018-05-03T16:01:45.850Z,58.10
2018-05-03T16:04:14.704Z,58.00
2018-05-03T16:06:44.272Z,58.30
2018-05-03T16:09:12.445Z,58.20
2018-05-03T16:11:40.722Z,58.50
2018-05-03T16:14:09.320Z,58.60
2018-05-03T16:16:37.625Z,58.60
2018-05-03T16:19:06.589Z,58.90
2018-05-03T16:21:34.799Z,58.90
2018-05-03T16:24:03.076Z,59.40
2018-05-03T16:26:31.277Z,59.30
2018-05-03T16:28:59.697Z,59.30
2018-05-03T16:31:28.447Z,59.50
2018-05-03T16:33:56.648Z,59.60
2018-05-03T16:36:26.857Z,59.90
2018-05-03T16:38:55.056Z,59.90
2018-05-03T16:41:23.257Z,60.10
2018-05-03T16:43:51.900Z,60.40
2018-05-03T16:46:20.178Z,60.50
2018-05-03T16:48:48.681Z,60.50
2018-05-03T16:51:16.895Z,60.30
2018-05-03T16:53:45.168Z,60.50
2018-05-03T16:56:13.620Z,60.00
2018-05-03T16:58:41.852Z,60.10
2018-05-03T17:01:10.567Z,60.40
2018-05-03T17:03:38.893Z,60.60
2018-05-03T17:06:07.858Z,60.70
2018-05-03T17:08:36.322Z,60.70
2018-05-03T17:11:04.931Z,60.50
2018-05-03T17:13:34.304Z,61.00
2018-05-03T17:16:03.311Z,61.20
2018-05-03T17:18:31.532Z,61.10
2018-05-03T17:21:00.184Z,61.40
2018-05-03T17:23:28.656Z,61.20
2018-05-03T17:25:56.860Z,61.30
2018-05-03T17:28:25.839Z,61.70
2018-05-03T17:30:54.507Z,61.70
2018-05-03T17:33:22.721Z,61.70
2018-05-03T17:35:52.010Z,62.10
2018-05-03T17:38:20.684Z,62.00
2018-05-03T17:40:48.884Z,62.10
2018-05-03T17:43:17.664Z,62.20
2018-05-03T17:45:47.140Z,61.30
2018-05-03T17:48:15.353Z,61.40
2018-05-03T17:50:44.774Z,61.90
2018-05-03T17:53:13.028Z,61.90
2018-05-03T17:55:43.519Z,61.70
2018-05-03T17:58:12.543Z,61.70
2018-05-03T18:00:45.035Z,61.80
2018-05-03T18:03:16.035Z,61.80
2018-05-03T18:05:44.212Z,61.80
2018-05-03T18:08:13.145Z,61.90
2018-05-03T18:10:43.471Z,62.20
2018-05-03T18:13:11.936Z,62.20
2018-05-03T18:15:40.149Z,62.10
2018-05-03T18:18:09.005Z,62.20
2018-05-03T18:20:37.978Z,62.30
2018-05-03T18:23:06.212Z,62.30
2018-05-03T18:25:34.836Z,62.40
2018-05-03T18:28:03.047Z,62.30
2018-05-03T18:30:32.443Z,62.30
2018-05-03T18:33:02.438Z,62.20
2018-05-03T18:35:32.459Z,62.40
2018-05-03T18:38:00.668Z,62.40
2018-05-03T18:40:29.460Z,62.50
2018-05-03T18:42:58.255Z,62.90
2018-05-03T18:45:26.810Z,63.80
2018-05-03T18:47:57.467Z,63.10
2018-05-03T18:50:26.092Z,63.10
2018-05-03T18:52:54.322Z,62.90
2018-05-03T18:55:24.028Z,62.30
2018-05-03T18:57:53.000Z,62.60
2018-05-03T19:00:21.574Z,62.60
2018-05-03T19:02:49.772Z,62.40
2018-05-03T19:05:17.973Z,62.30
2018-05-03T19:07:46.420Z,62.30
2018-05-03T19:10:15.212Z,62.40
2018-05-03T19:12:43.534Z,62.20
2018-05-03T19:15:14.661Z,62.70
2018-05-03T19:17:43.636Z,62.80
2018-05-03T19:20:11.836Z,62.70
2018-05-03T19:22:40.064Z,62.60
2018-05-03T19:25:08.264Z,62.60
2018-05-03T19:27:36.720Z,62.70
2018-05-03T19:30:04.932Z,63.20
2018-05-03T19:32:34.285Z,63.10
2018-05-03T19:35:09.748Z,63.00
2018-05-03T19:37:37.952Z,62.40
2018-05-03T19:40:06.736Z,63.30
2018-05-03T19:42:35.769Z,63.20
2018-05-03T19:45:04.285Z,63.20
2018-05-03T19:47:33.626Z,63.80
2018-05-03T19:50:02.591Z,63.30
2018-05-03T19:52:30.803Z,63.30
2018-05-03T19:55:06.389Z,63.60
2018-05-03T19:57:34.593Z,63.50
2018-05-03T20:00:03.236Z,63.60
2018-05-03T20:02:31.851Z,63.40
2018-05-03T20:05:00.051Z,63.50
2018-05-03T20:07:28.736Z,63.50
2018-05-03T20:09:57.422Z,63.70
2018-05-03T20:12:26.545Z,63.80
2018-05-03T20:14:54.841Z,63.80
2018-05-03T20:17:23.041Z,63.70
2018-05-03T20:19:51.571Z,63.70
2018-05-03T20:22:20.559Z,63.70
2018-05-03T20:24:48.822Z,63.60
2018-05-03T20:27:17.179Z,63.70
2018-05-03T20:29:45.879Z,63.70
2018-05-03T20:32:14.479Z,63.70
2018-05-03T20:34:42.693Z,63.60
2018-05-03T20:37:11.315Z,63.60
2018-05-03T20:39:39.803Z,63.70
2018-05-03T20:42:08.309Z,63.80
2018-05-03T20:44:37.586Z,64.40
2018-05-03T20:47:05.896Z,63.80
2018-05-03T20:49:34.860Z,64.00
2018-05-03T20:52:04.682Z,64.30
2018-05-03T20:54:33.170Z,64.40
2018-05-03T20:57:02.660Z,64.20
2018-05-03T20:59:31.275Z,64.20
2018-05-03T21:02:00.258Z,64.20
2018-05-03T21:04:28.997Z,64.30
2018-05-03T21:06:57.808Z,64.10
2018-05-03T21:09:26.009Z,64.20
2018-05-03T21:11:54.809Z,64.60
2018-05-03T21:14:23.017Z,64.40
2018-05-03T21:16:52.707Z,64.40
2018-05-03T21:19:22.049Z,64.60
2018-05-03T21:21:50.252Z,64.80
2018-05-03T21:24:20.071Z,64.70
2018-05-03T21:26:48.266Z,64.50
2018-05-03T21:29:16.605Z,64.80
2018-05-03T21:31:46.004Z,64.80
2018-05-03T21:34:14.220Z,64.90
2018-05-03T21:36:43.444Z,64.80
2018-05-03T21:39:11.648Z,64.80
2018-05-03T21:41:40.722Z,65.20
2018-05-03T21:44:09.340Z,65.10
2018-05-03T21:46:37.969Z,65.40
2018-05-03T21:49:06.939Z,65.50
2018-05-03T21:51:35.447Z,65.50
2018-05-03T21:54:03.653Z,65.60
2018-05-03T21:56:32.820Z,65.60
2018-05-03T21:59:16.193Z,65.60
2018-05-03T22:01:50.428Z,65.80
2018-05-03T22:04:18.907Z,65.80
2018-05-03T22:06:47.935Z,66.10
2018-05-03T22:09:17.668Z,66.10
2018-05-03T22:11:47.260Z,66.10
2018-05-03T22:14:15.473Z,66.00
2018-05-03T22:16:43.676Z,66.30
2018-05-03T22:19:11.950Z,66.40
2018-05-03T22:21:40.190Z,66.40
2018-05-03T22:24:08.401Z,67.20
2018-05-03T22:26:36.585Z,66.40
2018-05-03T22:29:05.380Z,66.30
2018-05-03T22:31:34.070Z,66.30
2018-05-03T22:34:02.541Z,66.50
2018-05-03T22:36:31.600Z,66.40
2018-05-03T22:39:00.547Z,66.50
2018-05-03T22:41:37.493Z,66.60
2018-05-03T22:44:07.115Z,66.50
2018-05-03T22:46:36.035Z,66.50
2018-05-03T22:49:04.997Z,66.60
2018-05-03T22:51:33.191Z,66.60
2018-05-03T22:54:01.782Z,66.50
2018-05-03T22:56:30.646Z,66.50
2018-05-03T22:58:58.860Z,66.50
2018-05-03T23:01:28.177Z,66.60
2018-05-03T23:03:56.389Z,66.60
2018-05-03T23:06:32.288Z,66.90
2018-05-03T23:09:01.256Z,66.70
2018-05-03T23:11:29.851Z,66.70
2018-05-03T23:13:58.065Z,66.80
2018-05-03T23:16:26.409Z,66.90
2018-05-03T23:18:54.973Z,66.80
2018-05-03T23:21:23.435Z,66.90
2018-05-03T23:23:51.637Z,67.00
2018-05-03T23:26:20.121Z,67.30
2018-05-03T23:28:48.599Z,67.20
2018-05-03T23:31:17.252Z,67.20
2018-05-03T23:33:45.460Z,67.00
2018-05-03T23:36:13.904Z,67.00
2018-05-03T23:38:42.110Z,66.90
2018-05-03T23:41:10.312Z,67.00
2018-05-03T23:43:39.020Z,67.20
2018-05-03T23:46:08.265Z,66.90
2018-05-03T23:48:36.461Z,66.90
2018-05-03T23:51:04.673Z,66.90
2018-05-03T23:53:32.899Z,67.20
2018-05-03T23:56:01.596Z,67.30
2018-05-03T23:58:29.807Z,67.30
